Time;durP1;ratioP1;P1;durP2;ratioP2;P2;SDS_P1;SDS_P2;PMS_P1;PMS_P2;Temp;Humidity;BMP_temperature;BMP_pressure;BME280_temperature;BME280_humidity;BME280_pressure;Samples;Min_cycle;Max_cycle;Signal;HPM_P1;HPM_P2
2021/12/26 00:01:18;;;;;;;;;;;;;;;3.70;100.00;95424.69;5097449;28;20017;-83
2021/12/26 00:03:45;;;;;;;;;;;;;;;3.70;100.00;95432.44;5078279;28;19985;-84
2021/12/26 00:06:12;;;;;;;;;;;;;;;3.69;100.00;95423.84;5097311;28;19968;-84
2021/12/26 00:08:42;;;;;;;;;;;;;;;3.70;100.00;95420.28;5097511;28;19956;-85
2021/12/26 00:11:09;;;;;;;;;;;;;;;3.69;100.00;95420.47;5079729;28;19954;-85
2021/12/26 00:13:35;;;;;;;;;;;;;;;3.68;100.00;95424.88;5078468;28;19955;-83
2021/12/26 00:16:02;;;;;;;;;;;;;;;3.68;100.00;95426.66;5097491;28;19961;-84
2021/12/26 00:18:28;;;;;;;;;;;;;;;3.66;100.00;95419.88;5079640;28;19969;-85
2021/12/26 00:20:54;;;;;;;;;;;;;;;3.64;100.00;95421.88;5096530;28;19962;-84
2021/12/26 00:23:23;;;;;;;;;;;;;;;3.61;100.00;95422.28;5078779;28;20337;-84
2021/12/26 00:25:49;;;;;;;;;;;;;;;3.60;100.00;95420.66;5096533;28;19964;-84
2021/12/26 00:28:15;;;;;;;;;;;;;;;3.59;100.00;95421.69;5096274;28;19958;-84
2021/12/26 00:30:42;;;;;;;;;;;;;;;3.55;100.00;95424.84;5096626;28;19959;-84
2021/12/26 00:33:08;;;;;;;;;;;;;;;3.52;100.00;95423.44;5062709;28;19953;-84
2021/12/26 00:35:34;;;;;;;;;;;;;;;3.49;100.00;95415.28;5097956;28;19960;-85
2021/12/26 00:38:00;;;;;;;;;;;;;;;3.47;100.00;95422.47;5096407;28;20021;-83
2021/12/26 00:40:26;;;;;;;;;;;;;;;3.43;100.00;95415.06;5077362;28;19951;-85
2021/12/26 00:42:53;;;;;;;;;;;;;;;3.42;100.00;95416.09;5095562;28;19954;-82
2021/12/26 00:45:19;;;;;;;;;;;;;;;3.41;100.00;95418.88;5095388;28;19964;-83
2021/12/26 00:47:45;;;;;;;;;;;;;;;3.43;100.00;95419.47;5095312;28;19952;-83
2021/12/26 00:50:14;;;;;;;;;;;;;;;3.45;100.00;95418.28;5095156;28;19951;-85
2021/12/26 00:52:40;;;;;;;;;;;;;;;3.44;100.00;95421.88;5095541;28;19965;-85
2021/12/26 00:55:08;;;;;;;;;;;;;;;3.44;100.00;95418.47;5076738;28;19980;-84
2021/12/26 00:57:34;;;;;;;;;;;;;;;3.40;100.00;95418.06;5095099;28;19967;-84
2021/12/26 01:00:00;;;;;;;;;;;;;;;3.39;100.00;95413.09;5077122;28;20307;-85
2021/12/26 01:02:26;;;;;;;;;;;;;;;3.33;100.00;95419.84;5077021;28;19961;-84
2021/12/26 01:04:52;;;;;;;;;;;;;;;3.28;100.00;95416.28;5076861;28;20042;-84
2021/12/26 01:07:49;;;;;;;;;;;;;;;3.23;100.00;95414.25;5060256;28;20056;-84
2021/12/26 01:10:08;;;;;;;;;;;;;;;3.23;100.00;95417.66;5093524;28;19959;-84
2021/12/26 01:12:35;;;;;;;;;;;;;;;3.24;100.00;95415.84;5095146;28;19958;-84
2021/12/26 01:15:05;;;;;;;;;;;;;;;3.23;100.00;95414.25;5094517;28;19967;-84
2021/12/26 01:17:31;;;;;;;;;;;;;;;3.21;100.00;95418.81;5094726;28;19974;-84
2021/12/26 01:19:58;;;;;;;;;;;;;;;3.18;100.00;95419.22;5076674;28;19948;-84
2021/12/26 01:22:24;;;;;;;;;;;;;;;3.17;100.00;95425.38;5094975;28;19965;-84
2021/12/26 01:24:55;;;;;;;;;;;;;;;3.15;100.00;95422.19;5094563;28;19957;-84
2021/12/26 01:27:22;;;;;;;;;;;;;;;3.14;100.00;95423.22;5076703;28;19961;-84
2021/12/26 01:29:49;;;;;;;;;;;;;;;3.14;100.00;95433.56;5094341;28;19961;-84
2021/12/26 01:32:15;;;;;;;;;;;;;;;3.12;100.00;95420.81;5094654;28;19946;-84
2021/12/26 01:34:40;;;;;;;;;;;;;;;3.08;100.00;95429.16;5095786;28;20452;-84
2021/12/26 01:37:06;;;;;;;;;;;;;;;3.07;100.00;95425.78;5078003;28;19960;-84
2021/12/26 01:39:32;;;;;;;;;;;;;;;3.07;100.00;95430.97;5095042;28;19968;-84
2021/12/26 01:42:02;;;;;;;;;;;;;;;3.05;100.00;95431.16;5094403;28;19955;-84
2021/12/26 01:44:31;;;;;;;;;;;;;;;3.04;100.00;95431.34;5094657;28;20344;-84
2021/12/26 01:46:57;;;;;;;;;;;;;;;3.02;100.00;95441.91;5094188;28;20410;-84
2021/12/26 01:49:25;;;;;;;;;;;;;;;3.03;100.00;95435.72;5094819;28;20050;-83
2021/12/26 01:51:52;;;;;;;;;;;;;;;3.02;100.00;95435.91;5094605;28;20293;-83
2021/12/26 01:54:33;;;;;;;;;;;;;;;3.02;100.00;95434.16;5093975;28;20478;-84
2021/12/26 01:57:00;;;;;;;;;;;;;;;3.08;100.00;95436.94;5094128;28;20034;-84
2021/12/26 01:59:27;;;;;;;;;;;;;;;3.12;100.00;95438.16;5094345;28;19970;-84
2021/12/26 02:01:56;;;;;;;;;;;;;;;3.15;100.00;95441.16;5093926;28;19963;-84
2021/12/26 02:04:23;;;;;;;;;;;;;;;3.18;100.00;95440.75;5094304;28;19959;-84
2021/12/26 02:06:49;;;;;;;;;;;;;;;3.20;100.00;95438.75;5093941;28;19946;-84
2021/12/26 02:09:16;;;;;;;;;;;;;;;3.24;100.00;95441.75;5094039;28;19970;-84
2021/12/26 02:11:41;;;;;;;;;;;;;;;3.29;100.00;95430.81;5093769;28;19972;-84
2021/12/26 02:14:07;;;;;;;;;;;;;;;3.31;100.00;95431.41;5093960;28;20318;-84
2021/12/26 02:16:34;;;;;;;;;;;;;;;3.32;100.00;95436.41;5075754;28;20005;-85
2021/12/26 02:19:01;;;;;;;;;;;;;;;3.33;100.00;95426.81;5094017;28;19976;-84
2021/12/26 02:29:23;;;;;;;;;;;;;;;3.30;100.00;95440.97;5094312;28;19964;-84
2021/12/26 02:31:49;;;;;;;;;;;;;;;3.28;100.00;95440.38;5075605;28;20316;-84
2021/12/26 02:34:15;;;;;;;;;;;;;;;3.25;100.00;95436.41;5093666;28;20005;-84
2021/12/26 02:36:41;;;;;;;;;;;;;;;3.25;100.00;95430.41;5075532;28;20324;-84
2021/12/26 02:39:07;;;;;;;;;;;;;;;3.23;100.00;95442.75;5075404;28;19973;-84
2021/12/26 02:41:32;;;;;;;;;;;;;;;3.21;100.00;95440.38;5093512;28;19959;-83
2021/12/26 02:43:58;;;;;;;;;;;;;;;3.17;100.00;95430.56;5093434;28;19955;-84
2021/12/26 02:46:25;;;;;;;;;;;;;;;3.14;100.00;95443.94;5075644;28;19961;-84
2021/12/26 02:48:52;;;;;;;;;;;;;;;3.10;100.00;95440.13;5075221;28;19957;-84
2021/12/26 02:51:18;;;;;;;;;;;;;;;3.07;100.00;95438.75;5093778;28;19950;-84
2021/12/26 02:53:45;;;;;;;;;;;;;;;3.09;100.00;95443.69;5075101;28;19961;-84
2021/12/26 02:56:11;;;;;;;;;;;;;;;3.07;100.00;95440.50;5093438;28;19959;-84
2021/12/26 02:58:37;;;;;;;;;;;;;;;3.07;100.00;95438.75;5093571;28;20075;-84
2021/12/26 03:01:09;;;;;;;;;;;;;;;3.05;100.00;95438.94;5093584;28;19992;-84
2021/12/26 03:03:35;;;;;;;;;;;;;;;3.07;100.00;95446.50;5093200;28;20335;-84
2021/12/26 03:06:08;;;;;;;;;;;;;;;3.05;100.00;95444.09;5093356;28;19954;-84
2021/12/26 03:08:33;;;;;;;;;;;;;;;3.05;100.00;95443.31;5075639;28;19955;-84
2021/12/26 03:11:00;;;;;;;;;;;;;;;3.02;100.00;95441.09;5075584;28;20423;-84
2021/12/26 03:13:26;;;;;;;;;;;;;;;3.00;100.00;95443.91;5075218;28;19960;-84
2021/12/26 03:15:52;;;;;;;;;;;;;;;3.01;100.00;95445.50;5093348;28;19961;-84
2021/12/26 03:18:18;;;;;;;;;;;;;;;3.04;100.00;95439.94;5092974;28;19969;-84
2021/12/26 03:20:46;;;;;;;;;;;;;;;3.08;100.00;95436.94;5093275;28;20423;-84
2021/12/26 03:23:12;;;;;;;;;;;;;;;3.07;100.00;95440.50;5093098;28;19954;-84
2021/12/26 03:25:39;;;;;;;;;;;;;;;3.06;100.00;95447.50;5092104;28;19962;-84
2021/12/26 03:28:06;;;;;;;;;;;;;;;3.08;100.00;95444.72;5092968;28;19956;-84
2021/12/26 03:30:32;;;;;;;;;;;;;;;3.08;100.00;95442.13;5093258;28;19954;-84
2021/12/26 03:33:00;;;;;;;;;;;;;;;3.08;100.00;95440.31;5093407;28;19959;-84
2021/12/26 03:35:27;;;;;;;;;;;;;;;3.12;100.00;95438.94;5093061;28;19954;-84
2021/12/26 03:37:54;;;;;;;;;;;;;;;3.15;100.00;95443.75;5092997;28;19965;-84
2021/12/26 03:40:19;;;;;;;;;;;;;;;3.17;100.00;95446.13;5096731;28;19978;-84
2021/12/26 03:42:45;;;;;;;;;;;;;;;3.19;100.00;95446.72;5096607;28;19976;-84
2021/12/26 03:45:11;;;;;;;;;;;;;;;3.19;100.00;95441.53;5097097;28;19963;-84
2021/12/26 03:47:38;;;;;;;;;;;;;;;3.21;100.00;95440.38;5100315;28;19953;-84
2021/12/26 03:50:06;;;;;;;;;;;;;;;3.24;100.00;95442.56;5100600;28;20395;-84
2021/12/26 03:52:32;;;;;;;;;;;;;;;3.25;100.00;95435.56;5099699;28;19955;-84
2021/12/26 03:54:59;;;;;;;;;;;;;;;3.27;100.00;95438.78;5097026;28;19981;-84
2021/12/26 03:57:25;;;;;;;;;;;;;;;3.29;100.00;95433.41;5096284;28;19960;-84
2021/12/26 03:59:50;;;;;;;;;;;;;;;3.33;100.00;95439.78;5096310;28;20122;-84
2021/12/26 04:02:16;;;;;;;;;;;;;;;3.34;100.00;95438.78;5078135;28;19974;-84
2021/12/26 04:04:43;;;;;;;;;;;;;;;3.38;100.00;95437.38;5078730;28;20054;-85
2021/12/26 04:07:09;;;;;;;;;;;;;;;3.39;100.00;95444.19;5096242;28;19954;-84
2021/12/26 04:09:35;;;;;;;;;;;;;;;3.42;100.00;95439.41;5095971;28;19952;-84
2021/12/26 04:12:01;;;;;;;;;;;;;;;3.46;100.00;95447.56;5095926;28;19967;-85
2021/12/26 04:14:27;;;;;;;;;;;;;;;3.49;100.00;95441.22;5078272;28;19960;-84
2021/12/26 04:16:53;;;;;;;;;;;;;;;3.50;100.00;95440.19;5095863;28;20050;-84
2021/12/26 04:19:19;;;;;;;;;;;;;;;3.51;100.00;95449.56;5077694;28;20073;-84
2021/12/26 04:21:45;;;;;;;;;;;;;;;3.52;100.00;95444.19;5096036;28;20359;-84
2021/12/26 04:24:11;;;;;;;;;;;;;;;3.53;100.00;95444.97;5095998;28;19962;-84
2021/12/26 04:26:39;;;;;;;;;;;;;;;3.54;100.00;95446.59;5095855;28;19959;-84
2021/12/26 04:29:05;;;;;;;;;;;;;;;3.54;100.00;95439.59;5095662;28;19958;-84
2021/12/26 04:31:31;;;;;;;;;;;;;;;3.55;100.00;95435.22;5095575;28;19956;-84
2021/12/26 04:33:57;;;;;;;;;;;;;;;3.53;100.00;95434.59;5095671;28;20434;-84
2021/12/26 04:36:23;;;;;;;;;;;;;;;3.52;100.00;95438.22;5095684;28;19964;-84
2021/12/26 04:38:49;;;;;;;;;;;;;;;3.50;100.00;95437.63;5095614;28;19969;-84
2021/12/26 04:41:15;;;;;;;;;;;;;;;3.50;100.00;95440.19;5095435;28;20024;-84
2021/12/26 04:43:41;;;;;;;;;;;;;;;3.50;100.00;95438.41;5077194;28;20338;-84
2021/12/26 04:46:08;;;;;;;;;;;;;;;3.49;100.00;95436.81;5095736;28;19962;-84
2021/12/26 04:48:38;;;;;;;;;;;;;;;3.51;100.00;95434.84;5077191;28;20310;-84
2021/12/26 04:51:06;;;;;;;;;;;;;;;3.51;100.00;95449.56;5076845;28;19983;-84
2021/12/26 04:53:32;;;;;;;;;;;;;;;3.53;100.00;95447.56;5095139;28;20354;-82
2021/12/26 04:55:58;;;;;;;;;;;;;;;3.53;100.00;95447.56;5095017;28;19960;-84
2021/12/26 04:58:24;;;;;;;;;;;;;;;3.51;100.00;95447.78;5077130;28;20491;-82
2021/12/26 05:00:50;;;;;;;;;;;;;;;3.53;100.00;95450.16;5095285;28;20050;-84
2021/12/26 05:03:16;;;;;;;;;;;;;;;3.50;100.00;95453.94;5095352;28;19955;-84
2021/12/26 05:05:44;;;;;;;;;;;;;;;3.51;100.00;95452.16;5094936;28;19960;-84
2021/12/26 05:08:11;;;;;;;;;;;;;;;3.50;100.00;95453.94;5094983;28;19965;-84
2021/12/26 05:10:39;;;;;;;;;;;;;;;3.51;100.00;95450.38;5093954;28;20357;-84
2021/12/26 05:13:05;;;;;;;;;;;;;;;3.52;100.00;95451.19;5094922;28;19966;-84
2021/12/26 05:15:31;;;;;;;;;;;;;;;3.52;100.00;95451.19;5076872;28;19957;-84
2021/12/26 05:17:57;;;;;;;;;;;;;;;3.55;100.00;95458.53;5094737;28;19951;-84
2021/12/26 05:20:25;;;;;;;;;;;;;;;3.56;100.00;95458.34;5078455;28;19963;-83
2021/12/26 05:22:52;;;;;;;;;;;;;;;3.59;100.00;95454.56;5094868;28;19955;-84
2021/12/26 05:25:19;;;;;;;;;;;;;;;3.59;100.00;95452.78;5094412;28;19952;-83
2021/12/26 05:27:45;;;;;;;;;;;;;;;3.63;100.00;95453.16;5095081;28;19968;-84
2021/12/26 05:30:13;;;;;;;;;;;;;;;3.63;100.00;95441.03;5094442;28;20440;-83
2021/12/26 05:32:40;;;;;;;;;;;;;;;3.65;100.00;95451.19;5094483;28;20444;-83
2021/12/26 05:35:06;;;;;;;;;;;;;;;3.68;100.00;95444.81;5094602;28;20387;-84
2021/12/26 05:37:32;;;;;;;;;;;;;;;3.69;100.00;95446.41;5094446;28;19954;-84
2021/12/26 05:40:00;;;;;;;;;;;;;;;3.70;100.00;95445.41;5076260;28;20024;-84
2021/12/26 05:42:26;;;;;;;;;;;;;;;3.70;100.00;95443.63;5094491;28;19957;-84
2021/12/26 05:44:52;;;;;;;;;;;;;;;3.70;100.00;95443.63;5094452;28;19995;-84
2021/12/26 05:47:18;;;;;;;;;;;;;;;3.71;100.00;95442.59;5094460;28;20047;-84
2021/12/26 05:49:44;;;;;;;;;;;;;;;3.71;100.00;95445.19;5094349;28;20322;-84
2021/12/26 05:52:10;;;;;;;;;;;;;;;3.71;100.00;95445.19;5094092;28;19965;-84
2021/12/26 05:54:36;;;;;;;;;;;;;;;3.73;100.00;95450.97;5094322;28;19986;-84
2021/12/26 05:57:03;;;;;;;;;;;;;;;3.75;100.00;95438.63;5094072;28;19954;-84
2021/12/26 05:59:29;;;;;;;;;;;;;;;3.76;100.00;95452.38;5094059;28;19979;-84
2021/12/26 06:01:55;;;;;;;;;;;;;;;3.77;100.00;95452.19;5080086;28;19954;-84
2021/12/26 06:04:21;;;;;;;;;;;;;;;3.78;100.00;95452.97;5093945;28;19950;-84
2021/12/26 06:06:47;;;;;;;;;;;;;;;3.77;100.00;95452.19;5094014;28;20334;-84
2021/12/26 06:09:13;;;;;;;;;;;;;;;3.77;100.00;95451.38;5094144;28;19952;-84
2021/12/26 06:11:39;;;;;;;;;;;;;;;3.77;100.00;95447.00;5094204;28;19977;-85
2021/12/26 06:14:05;;;;;;;;;;;;;;;3.77;100.00;95448.78;5075669;28;19948;-84
2021/12/26 06:16:31;;;;;;;;;;;;;;;3.79;100.00;95446.81;5075850;28;20434;-84
2021/12/26 06:18:56;;;;;;;;;;;;;;;3.80;100.00;95443.19;5093901;28;19968;-84
2021/12/26 06:21:22;;;;;;;;;;;;;;;3.80;100.00;95448.38;5093704;28;20006;-84
2021/12/26 06:23:52;;;;;;;;;;;;;;;3.82;100.00;95452.41;5093679;28;19956;-84
2021/12/26 06:26:18;;;;;;;;;;;;;;;3.83;100.00;95453.19;5094023;28;19960;-84
2021/12/26 06:28:44;;;;;;;;;;;;;;;3.83;100.00;95453.19;5093718;28;20023;-84
2021/12/26 06:31:10;;;;;;;;;;;;;;;3.85;100.00;95448.59;5093984;28;19963;-84
2021/12/26 06:33:36;;;;;;;;;;;;;;;3.85;100.00;95451.97;5093734;28;19983;-84
2021/12/26 06:36:02;;;;;;;;;;;;;;;3.87;100.00;95454.38;5093725;28;20428;-84
2021/12/26 06:38:27;;;;;;;;;;;;;;;3.86;100.00;95458.78;5093553;28;19953;-83
2021/12/26 06:40:53;;;;;;;;;;;;;;;3.87;100.00;95454.38;5093497;28;20330;-84
2021/12/26 06:43:20;;;;;;;;;;;;;;;3.90;100.00;95463.56;5058818;28;19960;-83
2021/12/26 06:45:46;;;;;;;;;;;;;;;3.89;100.00;95456.78;5093567;28;19952;-84
2021/12/26 06:48:12;;;;;;;;;;;;;;;3.89;100.00;95460.16;5093487;28;19959;-84
2021/12/26 06:50:38;;;;;;;;;;;;;;;3.90;100.00;95464.34;5093423;28;20013;-84
2021/12/26 06:53:04;;;;;;;;;;;;;;;3.91;100.00;95458.19;5093790;28;19959;-84
2021/12/26 06:55:30;;;;;;;;;;;;;;;3.91;100.00;95454.78;5093486;28;19996;-84
2021/12/26 06:57:57;;;;;;;;;;;;;;;3.92;100.00;95458.97;5093721;28;19964;-83
2021/12/26 07:00:22;;;;;;;;;;;;;;;3.93;100.00;95463.97;5093284;28;19975;-84
2021/12/26 07:02:48;;;;;;;;;;;;;;;3.93;100.00;95465.75;5093364;28;20380;-84
2021/12/26 07:05:14;;;;;;;;;;;;;;;3.93;100.00;95463.97;5093496;28;20056;-83
2021/12/26 07:07:41;;;;;;;;;;;;;;;3.94;100.00;95469.94;5093251;28;20421;-84
2021/12/26 07:10:07;;;;;;;;;;;;;;;3.95;100.00;95471.53;5093206;28;19954;-84
2021/12/26 07:12:33;;;;;;;;;;;;;;;3.93;100.00;95473.53;5093452;28;19962;-83
2021/12/26 07:14:59;;;;;;;;;;;;;;;3.94;100.00;95469.94;5078516;28;19960;-84
2021/12/26 07:17:25;;;;;;;;;;;;;;;3.92;100.00;95469.34;5097247;28;20480;-83
2021/12/26 07:19:51;;;;;;;;;;;;;;;3.92;100.00;95479.72;5078810;28;20003;-84
2021/12/26 07:22:17;;;;;;;;;;;;;;;3.91;100.00;95480.72;5097310;28;19962;-84
2021/12/26 07:24:46;;;;;;;;;;;;;;;3.90;100.00;95482.50;5096845;28;19956;-83
2021/12/26 07:27:15;;;;;;;;;;;;;;;3.90;100.00;95487.69;5097000;28;19976;-83
2021/12/26 07:29:41;;;;;;;;;;;;;;;3.92;100.00;95479.72;5096982;28;19969;-84
2021/12/26 07:32:08;;;;;;;;;;;;;;;3.92;100.00;95483.09;5097058;28;20410;-84
2021/12/26 07:34:34;;;;;;;;;;;;;;;3.95;100.00;95487.09;5096902;28;19973;-84
2021/12/26 07:37:00;;;;;;;;;;;;;;;3.96;100.00;95496.47;5096886;28;19958;-84
2021/12/26 07:39:26;;;;;;;;;;;;;;;3.97;100.00;95501.47;5078482;28;19970;-83
2021/12/26 07:41:52;;;;;;;;;;;;;;;3.97;100.00;95491.09;5096689;28;20444;-84
2021/12/26 07:44:18;;;;;;;;;;;;;;;3.97;100.00;95496.28;5096731;28;19960;-84
2021/12/26 07:46:44;;;;;;;;;;;;;;;3.95;100.00;95490.50;5096541;28;19958;-84
2021/12/26 07:49:10;;;;;;;;;;;;;;;3.96;100.00;95497.28;5096693;28;19961;-84
2021/12/26 07:51:36;;;;;;;;;;;;;;;3.97;100.00;95495.47;5078515;28;20060;-84
2021/12/26 07:54:02;;;;;;;;;;;;;;;3.98;100.00;95502.25;5095977;28;20355;-84
2021/12/26 07:56:29;;;;;;;;;;;;;;;3.99;100.00;95496.06;5096655;28;20412;-84
2021/12/26 07:58:55;;;;;;;;;;;;;;;4.00;100.00;95502.88;5095997;28;19953;-84
2021/12/26 08:01:21;;;;;;;;;;;;;;;4.02;100.00;95504.25;5096168;28;20415;-84
2021/12/26 08:03:47;;;;;;;;;;;;;;;4.04;100.00;95496.28;5096532;28;19977;-84
2021/12/26 08:06:18;;;;;;;;;;;;;;;4.06;100.00;95502.06;5079106;28;19964;-83
2021/12/26 08:08:47;;;;;;;;;;;;;;;4.08;100.00;95497.47;5103795;28;19963;-83
2021/12/26 08:11:14;;;;;;;;;;;;;;;4.08;100.00;95502.66;5097288;28;19962;-84
2021/12/26 08:13:40;;;;;;;;;;;;;;;4.08;100.00;95494.88;5096003;28;19963;-84
2021/12/26 08:16:06;;;;;;;;;;;;;;;4.11;100.00;95506.66;5096351;28;19955;-84
2021/12/26 08:18:32;;;;;;;;;;;;;;;4.11;100.00;95497.06;5095975;28;19978;-84
2021/12/26 08:20:59;;;;;;;;;;;;;;;4.11;100.00;95510.03;5095896;28;19966;-84
2021/12/26 08:23:25;;;;;;;;;;;;;;;4.13;100.00;95500.25;5095925;28;19958;-84
2021/12/26 08:25:51;;;;;;;;;;;;;;;4.14;100.00;95506.25;5077397;28;20320;-83
2021/12/26 08:28:17;;;;;;;;;;;;;;;4.15;100.00;95505.25;5096063;28;19976;-83
2021/12/26 08:30:43;;;;;;;;;;;;;;;4.17;100.00;95501.44;5094246;28;19965;-82
2021/12/26 08:33:09;;;;;;;;;;;;;;;4.19;100.00;95509.03;5095961;28;19993;-83
2021/12/26 08:35:35;;;;;;;;;;;;;;;4.19;100.00;95504.66;5077416;28;19956;-82
2021/12/26 08:38:02;;;;;;;;;;;;;;;4.21;100.00;95497.47;5095582;28;19993;-82
2021/12/26 08:40:28;;;;;;;;;;;;;;;4.25;100.00;95509.03;5095451;28;20354;-82
2021/12/26 08:42:54;;;;;;;;;;;;;;;4.26;100.00;95508.06;5095831;28;19951;-82
2021/12/26 08:45:20;;;;;;;;;;;;;;;4.29;100.00;95508.66;5077159;28;19958;-82
2021/12/26 08:47:47;;;;;;;;;;;;;;;4.32;100.00;95514.22;5095556;28;19960;-82
2021/12/26 08:50:13;;;;;;;;;;;;;;;4.33;100.00;95507.25;5095059;28;19970;-82
2021/12/26 08:52:39;;;;;;;;;;;;;;;4.34;100.00;95499.25;5077496;28;19978;-82
2021/12/26 08:55:06;;;;;;;;;;;;;;;4.33;100.00;95497.66;5095324;28;19993;-83
2021/12/26 08:57:32;;;;;;;;;;;;;;;4.35;100.00;95507.84;5095075;28;19969;-82
2021/12/26 08:59:59;;;;;;;;;;;;;;;4.37;100.00;95511.81;5095035;28;19969;-82
2021/12/26 09:02:25;;;;;;;;;;;;;;;4.38;100.00;95523.78;5095386;28;19950;-83
2021/12/26 09:04:51;;;;;;;;;;;;;;;4.34;100.00;95516.63;5095153;28;19955;-83
2021/12/26 09:07:18;;;;;;;;;;;;;;;4.34;100.00;95527.78;5095076;28;19959;-83
2021/12/26 09:09:46;;;;;;;;;;;;;;;4.33;100.00;95531.41;5077036;28;19953;-84
2021/12/26 09:12:12;;;;;;;;;;;;;;;4.28;100.00;95531.19;5076711;28;19963;-84
2021/12/26 09:14:38;;;;;;;;;;;;;;;4.26;100.00;95525.41;5077442;28;19969;-83
2021/12/26 09:17:05;;;;;;;;;;;;;;;4.29;100.00;95527.59;5094948;28;19961;-83
2021/12/26 09:19:32;;;;;;;;;;;;;;;4.26;100.00;95531.41;5094718;28;19970;-83
2021/12/26 09:21:59;;;;;;;;;;;;;;;4.29;100.00;95537.19;5095016;28;19957;-83
2021/12/26 09:24:25;;;;;;;;;;;;;;;4.33;100.00;95533.22;5095167;28;19955;-83
2021/12/26 09:26:51;;;;;;;;;;;;;;;4.39;100.00;95534.97;5076702;28;20338;-83
2021/12/26 09:29:17;;;;;;;;;;;;;;;4.38;100.00;95536.78;5094845;28;19954;-83
2021/12/26 09:31:43;;;;;;;;;;;;;;;4.42;100.00;95539.78;5094548;28;20030;-84
2021/12/26 09:34:09;;;;;;;;;;;;;;;4.41;100.00;95544.19;5094561;28;19951;-83
2021/12/26 09:36:35;;;;;;;;;;;;;;;4.40;100.00;95542.56;5094427;28;19960;-83
2021/12/26 09:39:03;;;;;;;;;;;;;;;4.37;100.00;95544.78;5094394;28;19960;-84
2021/12/26 09:41:29;;;;;;;;;;;;;;;4.36;100.00;95543.16;5094454;28;19955;-83
2021/12/26 09:43:55;;;;;;;;;;;;;;;4.39;100.00;95540.16;5093412;28;19962;-83
2021/12/26 09:46:21;;;;;;;;;;;;;;;4.39;100.00;95538.38;5094406;28;19959;-83
2021/12/26 09:48:47;;;;;;;;;;;;;;;4.42;100.00;95543.16;5094668;28;19998;-83
2021/12/26 09:51:13;;;;;;;;;;;;;;;4.46;100.00;95546.16;5094293;28;19957;-83
2021/12/26 09:53:40;;;;;;;;;;;;;;;4.54;100.00;95537.38;5075931;28;19964;-83
2021/12/26 09:56:06;;;;;;;;;;;;;;;4.61;100.00;95538.16;5094392;28;19953;-83
2021/12/26 09:58:33;;;;;;;;;;;;;;;4.63;100.00;95536.16;5094772;28;19963;-83
2021/12/26 10:00:59;;;;;;;;;;;;;;;4.66;100.00;95526.16;5094115;28;19972;-83
2021/12/26 10:03:35;;;;;;;;;;;;;;;4.72;100.00;95534.13;5076220;28;19952;-83
2021/12/26 10:06:08;;;;;;;;;;;;;;;4.77;100.00;95531.75;5078458;28;19951;-83
2021/12/26 10:08:36;;;;;;;;;;;;;;;4.84;100.00;95522.13;5093797;28;19955;-83
2021/12/26 10:11:11;;;;;;;;;;;;;;;4.89;100.00;95517.09;5093802;28;20398;-84
2021/12/26 10:13:45;;;;;;;;;;;;;;;4.90;100.00;95515.31;5093945;28;20331;-83
2021/12/26 10:16:11;;;;;;;;;;;;;;;4.90;100.00;95510.91;5093977;28;20304;-83
2021/12/26 10:18:41;;;;;;;;;;;;;;;4.92;100.00;95511.50;5094332;28;19958;-83
2021/12/26 10:21:25;;;;;;;;;;;;;;;4.94;100.00;95511.31;5094767;28;19965;-84
2021/12/26 10:23:51;;;;;;;;;;;;;;;5.00;100.00;95518.28;5095114;28;19964;-83
2021/12/26 10:26:21;;;;;;;;;;;;;;;5.01;100.00;95514.66;5094115;28;19962;-83
2021/12/26 10:29:05;;;;;;;;;;;;;;;5.02;100.00;95513.69;5093909;28;19962;-83
2021/12/26 10:31:31;;;;;;;;;;;;;;;5.02;100.00;95511.09;5062209;28;19958;-83
2021/12/26 10:33:57;;;;;;;;;;;;;;;5.01;100.00;95510.25;5093740;28;19961;-83
2021/12/26 10:36:23;;;;;;;;;;;;;;;5.02;100.00;95511.88;5093750;28;20325;-83
2021/12/26 10:39:08;;;;;;;;;;;;;;;4.99;100.00;95506.28;5093457;28;19964;-83
2021/12/26 10:41:39;;;;;;;;;;;;;;;4.96;100.00;95501.50;5093469;28;19978;-83
2021/12/26 10:44:05;;;;;;;;;;;;;;;4.95;100.00;95495.50;5093343;28;19957;-83
2021/12/26 10:46:31;;;;;;;;;;;;;;;4.94;100.00;95501.72;5093331;28;20455;-84
2021/12/26 10:49:17;;;;;;;;;;;;;;;4.97;100.00;95492.69;5095627;28;20024;-83
2021/12/26 10:51:43;;;;;;;;;;;;;;;5.02;100.00;95493.69;5097246;28;20639;-83
2021/12/26 10:54:16;;;;;;;;;;;;;;;5.08;100.00;95487.66;5097363;28;19978;-83
2021/12/26 10:57:00;;;;;;;;;;;;;;;5.17;100.00;95490.03;5097424;28;19952;-83
2021/12/26 10:59:26;;;;;;;;;;;;;;;5.24;100.00;95488.19;5097313;28;19955;-83
2021/12/26 11:01:54;;;;;;;;;;;;;;;5.32;100.00;95474.16;5097385;28;20033;-83
2021/12/26 11:04:20;;;;;;;;;;;;;;;5.42;100.00;95479.69;5097254;28;20301;-83
2021/12/26 11:06:58;;;;;;;;;;;;;;;5.46;100.00;95476.47;5097306;28;19968;-83
2021/12/26 11:09:24;;;;;;;;;;;;;;;5.50;100.00;95471.63;5097268;28;19968;-83
2021/12/26 11:12:07;;;;;;;;;;;;;;;5.59;100.00;95459.97;5079061;28;19954;-83
2021/12/26 11:14:53;;;;;;;;;;;;;;;5.66;100.00;95462.53;5079220;28;19964;-83
2021/12/26 11:17:29;;;;;;;;;;;;;;;5.74;100.00;95459.69;5084802;28;19963;-83
2021/12/26 11:19:55;;;;;;;;;;;;;;;5.87;100.00;95464.78;5097153;28;19971;-84
2021/12/26 11:22:22;;;;;;;;;;;;;;;6.00;100.00;95455.28;5100633;28;19959;-83
2021/12/26 11:24:49;;;;;;;;;;;;;;;6.13;100.00;95457.00;5103799;28;19963;-83
2021/12/26 11:27:15;;;;;;;;;;;;;;;6.26;100.00;95455.06;5086828;28;19959;-84
2021/12/26 11:29:41;;;;;;;;;;;;;;;6.47;99.63;95456.47;5098084;28;20016;-84
2021/12/26 11:32:07;;;;;;;;;;;;;;;6.69;98.89;95453.44;5097507;28;20069;-83
2021/12/26 11:34:34;;;;;;;;;;;;;;;6.86;100.00;95467.47;5097688;28;19962;-84
2021/12/26 11:37:00;;;;;;;;;;;;;;;6.92;98.70;95455.38;5096709;28;20344;-84
2021/12/26 11:39:27;;;;;;;;;;;;;;;6.93;98.00;95454.38;5096713;28;19968;-84
2021/12/26 11:41:53;;;;;;;;;;;;;;;6.85;96.96;95455.47;5096723;28;19959;-83
2021/12/26 11:44:43;;;;;;;;;;;;;;;6.77;97.98;95454.97;5096595;28;20418;-84
2021/12/26 11:47:12;;;;;;;;;;;;;;;6.73;98.25;95461.63;5068922;28;20322;-83
2021/12/26 11:50:03;;;;;;;;;;;;;;;6.70;98.65;95462.84;5096854;28;19958;-83
2021/12/26 11:52:41;;;;;;;;;;;;;;;6.65;98.91;95454.88;5096598;28;19964;-84
2021/12/26 11:55:20;;;;;;;;;;;;;;;6.54;97.29;95461.59;5069998;28;19982;-83
2021/12/26 11:58:02;;;;;;;;;;;;;;;6.43;98.63;95468.31;5076352;28;19969;-83
2021/12/26 12:00:34;;;;;;;;;;;;;;;6.39;99.30;95454.16;5075989;28;19973;-83
2021/12/26 12:03:02;;;;;;;;;;;;;;;6.40;100.00;95457.53;5076180;28;19965;-83
2021/12/26 12:05:28;;;;;;;;;;;;;;;6.35;100.00;95454.78;5076065;28;20360;-83
2021/12/26 12:07:56;;;;;;;;;;;;;;;6.27;100.00;95450.66;5075943;28;20422;-83
2021/12/26 12:10:41;;;;;;;;;;;;;;;6.21;100.00;95446.31;5075752;28;19958;-83
2021/12/26 12:13:09;;;;;;;;;;;;;;;6.16;100.00;95446.16;5075876;28;20451;-83
2021/12/26 12:15:52;;;;;;;;;;;;;;;6.16;100.00;95440.97;5075611;28;19979;-83
2021/12/26 12:18:26;;;;;;;;;;;;;;;6.19;100.00;95450.94;5075870;28;19964;-83
2021/12/26 12:21:10;;;;;;;;;;;;;;;6.20;100.00;95450.72;5075784;28;19978;-83
2021/12/26 12:23:39;;;;;;;;;;;;;;;6.20;100.00;95447.34;5075633;28;19955;-83
2021/12/26 12:26:05;;;;;;;;;;;;;;;6.24;100.00;95444.06;5075311;28;19969;-84
2021/12/26 12:28:32;;;;;;;;;;;;;;;6.29;100.00;95446.81;5075557;28;20042;-84
2021/12/26 12:31:15;;;;;;;;;;;;;;;6.35;100.00;95450.38;5062110;28;19944;-83
2021/12/26 12:33:41;;;;;;;;;;;;;;;6.39;100.00;95437.72;5075608;28;20002;-83
2021/12/26 12:36:12;;;;;;;;;;;;;;;6.40;100.00;95441.91;5075461;28;19960;-83
2021/12/26 12:38:39;;;;;;;;;;;;;;;6.43;100.00;95446.72;5074122;28;20322;-82
2021/12/26 12:41:28;;;;;;;;;;;;;;;6.50;100.00;95442.22;5075024;28;20371;-77
2021/12/26 12:43:55;;;;;;;;;;;;;;;6.50;100.00;95437.78;5074923;28;19951;-77
2021/12/26 12:46:25;;;;;;;;;;;;;;;6.53;100.00;95428.78;5074969;28;19960;-78
2021/12/26 12:49:00;;;;;;;;;;;;;;;6.50;100.00;95427.38;5074582;28;19959;-78
2021/12/26 12:51:26;;;;;;;;;;;;;;;6.51;100.00;95428.19;5075073;28;19957;-78
2021/12/26 12:53:56;;;;;;;;;;;;;;;6.52;100.00;95437.59;5074952;28;20902;-77
2021/12/26 12:56:29;;;;;;;;;;;;;;;6.56;100.00;95427.53;5075306;28;19969;-78
2021/12/26 12:59:16;;;;;;;;;;;;;;;6.60;100.00;95426.09;5073442;28;19961;-76